createdAt,value
2023-07-24T00:00:03.419Z,3.40
2023-07-24T00:02:30.242Z,3.30
2023-07-24T00:04:56.874Z,3.33
2023-07-24T00:07:24.428Z,3.00
2023-07-24T00:09:51.097Z,3.50
2023-07-24T00:12:17.779Z,3.95
2023-07-24T00:14:44.458Z,3.50
2023-07-24T00:17:11.172Z,3.60
2023-07-24T00:19:40.035Z,3.70
2023-07-24T00:22:06.840Z,4.35
2023-07-24T00:24:33.714Z,3.40
2023-07-24T00:27:00.452Z,3.83
2023-07-24T00:29:27.208Z,3.63
2023-07-24T00:31:53.907Z,4.18
2023-07-24T00:34:20.545Z,4.07
2023-07-24T00:36:47.221Z,3.50
2023-07-24T00:39:15.980Z,4.18
2023-07-24T00:41:43.297Z,3.47
2023-07-24T00:44:10.051Z,4.00
2023-07-24T00:46:37.144Z,3.90
2023-07-24T00:49:05.790Z,3.75
2023-07-24T00:51:34.009Z,3.80
2023-07-24T00:54:03.361Z,4.18
2023-07-24T00:56:32.778Z,3.40
2023-07-24T00:59:00.753Z,4.10
2023-07-24T01:01:27.986Z,4.38
2023-07-24T01:03:55.280Z,3.42
2023-07-24T01:06:22.189Z,3.28
2023-07-24T01:08:48.785Z,3.78
2023-07-24T01:11:37.296Z,3.70
2023-07-24T01:14:28.030Z,4.03
2023-07-24T01:16:56.823Z,3.75
2023-07-24T01:20:05.229Z,3.92
2023-07-24T01:22:31.931Z,3.72
2023-07-24T01:25:28.150Z,4.03
2023-07-24T01:27:54.799Z,4.10
2023-07-24T01:30:22.175Z,3.83
2023-07-24T01:32:49.566Z,3.90
2023-07-24T01:35:16.556Z,3.75
2023-07-24T01:37:44.603Z,3.85
2023-07-24T01:40:12.844Z,3.67
2023-07-24T01:42:39.959Z,4.43
2023-07-24T01:45:07.253Z,4.57
2023-07-24T01:47:34.244Z,4.07
2023-07-24T01:50:01.008Z,4.50
2023-07-24T01:52:27.759Z,4.25
2023-07-24T01:54:54.444Z,4.15
2023-07-24T01:57:21.167Z,3.88
2023-07-24T01:59:47.934Z,3.90
2023-07-24T02:02:14.656Z,3.90
2023-07-24T02:04:41.358Z,4.10
2023-07-24T02:07:07.997Z,3.47
2023-07-24T02:09:34.637Z,3.80
2023-07-24T02:12:03.050Z,3.50
2023-07-24T02:14:29.690Z,3.90
2023-07-24T02:16:56.354Z,4.47
2023-07-24T02:19:22.961Z,4.03
2023-07-24T02:21:49.600Z,3.85
2023-07-24T02:24:16.289Z,3.83
2023-07-24T02:26:42.974Z,4.10
2023-07-24T02:29:09.618Z,4.32
2023-07-24T02:31:36.325Z,4.20
2023-07-24T02:34:02.990Z,4.10
2023-07-24T02:36:30.018Z,3.38
2023-07-24T02:38:56.865Z,3.92
2023-07-24T02:41:23.528Z,3.67
2023-07-24T02:43:50.167Z,3.60
2023-07-24T02:46:16.815Z,4.00
2023-07-24T02:48:43.499Z,3.85
2023-07-24T02:51:10.076Z,3.60
2023-07-24T02:53:36.693Z,3.78
2023-07-24T02:56:03.759Z,4.20
2023-07-24T02:58:30.572Z,3.60
2023-07-24T03:01:07.923Z,3.92
2023-07-24T03:03:35.406Z,4.00
2023-07-24T03:06:02.648Z,4.20
2023-07-24T03:08:29.258Z,3.80
2023-07-24T03:10:55.937Z,4.93
2023-07-24T03:13:22.632Z,4.13
2023-07-24T03:15:57.704Z,3.92
2023-07-24T03:18:24.576Z,3.63
2023-07-24T03:20:51.478Z,3.50
2023-07-24T03:23:18.201Z,4.13
2023-07-24T03:25:44.910Z,3.75
2023-07-24T03:28:11.539Z,4.28
2023-07-24T03:30:38.219Z,4.03
2023-07-24T03:33:05.192Z,4.82
2023-07-24T03:35:31.863Z,4.45
2023-07-24T03:37:58.591Z,4.20
2023-07-24T03:40:25.184Z,4.25
2023-07-24T03:42:51.795Z,3.90
2023-07-24T03:45:18.500Z,3.90
2023-07-24T03:47:45.137Z,4.60
2023-07-24T03:50:11.916Z,3.92
2023-07-24T03:52:38.625Z,4.28
2023-07-24T03:55:05.767Z,4.22
2023-07-24T03:57:32.413Z,4.30
2023-07-24T03:59:59.183Z,4.03
2023-07-24T04:02:25.829Z,4.55
2023-07-24T04:04:52.483Z,4.47
2023-07-24T04:07:19.214Z,4.25
2023-07-24T04:09:45.835Z,4.50
2023-07-24T04:12:12.498Z,4.13
2023-07-24T04:14:39.344Z,4.28
2023-07-24T04:17:06.303Z,5.00
2023-07-24T04:19:34.023Z,4.65
2023-07-24T04:22:00.760Z,4.60
2023-07-24T04:24:27.395Z,4.70
2023-07-24T04:26:54.037Z,4.50
2023-07-24T04:29:24.825Z,3.90
2023-07-24T04:31:51.840Z,4.85
2023-07-24T04:34:18.577Z,4.75
2023-07-24T04:36:45.254Z,5.03
2023-07-24T04:39:11.979Z,4.55
2023-07-24T04:41:38.559Z,4.82
2023-07-24T04:44:05.218Z,4.45
2023-07-24T04:46:32.340Z,4.55
2023-07-24T04:48:59.227Z,4.50
2023-07-24T04:51:25.962Z,5.07
2023-07-24T04:53:52.616Z,4.10
2023-07-24T04:56:19.249Z,5.22
2023-07-24T04:58:45.882Z,4.82
2023-07-24T05:01:12.523Z,5.03
2023-07-24T05:03:39.671Z,4.57
2023-07-24T05:06:06.324Z,5.13
2023-07-24T05:08:33.084Z,4.75
2023-07-24T05:11:00.361Z,5.22
2023-07-24T05:13:27.910Z,5.05
2023-07-24T05:15:54.597Z,5.50
2023-07-24T05:18:21.445Z,5.07
2023-07-24T05:20:49.806Z,5.32
2023-07-24T05:23:16.497Z,5.00
2023-07-24T05:25:43.305Z,5.20
2023-07-24T05:28:10.881Z,5.47
2023-07-24T05:30:37.974Z,4.93
2023-07-24T05:33:04.777Z,4.70
2023-07-24T05:35:31.537Z,5.40
2023-07-24T05:37:58.227Z,5.13
2023-07-24T05:40:25.008Z,5.40
2023-07-24T05:42:51.731Z,4.53
2023-07-24T05:45:18.469Z,4.90
2023-07-24T05:47:45.201Z,5.30
2023-07-24T05:50:14.444Z,5.53
2023-07-24T05:52:41.789Z,5.80
2023-07-24T05:55:09.225Z,5.18
2023-07-24T05:57:36.167Z,5.55
2023-07-24T06:00:06.090Z,5.00
2023-07-24T06:02:33.171Z,5.22
2023-07-24T06:04:59.902Z,5.40
2023-07-24T06:07:26.588Z,5.00
2023-07-24T06:09:53.205Z,5.38
2023-07-24T06:12:19.854Z,4.95
2023-07-24T06:14:46.543Z,4.93
2023-07-24T06:17:13.181Z,4.85
2023-07-24T06:19:39.846Z,4.75
2023-07-24T06:22:06.456Z,5.38
2023-07-24T06:24:33.163Z,5.05
2023-07-24T06:26:59.913Z,5.47
2023-07-24T06:29:27.020Z,5.32
2023-07-24T06:31:53.700Z,5.28
2023-07-24T06:34:20.396Z,4.97
2023-07-24T06:36:47.127Z,5.60
2023-07-24T06:39:13.726Z,5.10
2023-07-24T06:41:40.386Z,5.28
2023-07-24T06:44:06.975Z,5.57
2023-07-24T06:46:33.684Z,4.97
2023-07-24T06:49:00.338Z,5.60
2023-07-24T06:51:27.090Z,4.88
2023-07-24T06:53:53.725Z,4.60
2023-07-24T06:56:20.500Z,4.40
2023-07-24T06:58:47.080Z,4.30
2023-07-24T07:01:13.749Z,4.50
2023-07-24T07:03:40.527Z,4.65
2023-07-24T07:06:07.899Z,4.22
2023-07-24T07:08:34.647Z,4.00
2023-07-24T07:11:02.312Z,4.32
2023-07-24T07:13:29.288Z,4.90
2023-07-24T07:15:58.493Z,4.93
2023-07-24T07:18:25.216Z,4.03
2023-07-24T07:20:53.858Z,4.32
2023-07-24T07:23:21.280Z,4.45
2023-07-24T07:25:48.022Z,4.80
2023-07-24T07:28:15.972Z,4.80
2023-07-24T07:30:45.776Z,4.68
2023-07-24T07:33:13.109Z,4.75
2023-07-24T07:35:39.746Z,3.80
2023-07-24T07:38:06.428Z,4.47
2023-07-24T07:40:33.120Z,4.32
2023-07-24T07:42:59.786Z,4.75
2023-07-24T07:45:26.764Z,4.50
2023-07-24T07:47:54.586Z,4.22
2023-07-24T07:50:21.443Z,4.47
2023-07-24T07:52:51.960Z,4.25
2023-07-24T07:55:19.963Z,4.60
2023-07-24T07:57:46.597Z,4.25
2023-07-24T08:00:13.586Z,4.30
2023-07-24T08:02:43.323Z,4.13
2023-07-24T08:05:17.109Z,5.05
2023-07-24T08:07:47.728Z,4.57
2023-07-24T08:10:16.900Z,4.70
2023-07-24T08:12:45.081Z,4.07
2023-07-24T08:15:12.677Z,4.35
2023-07-24T08:17:39.594Z,4.53
2023-07-24T08:20:07.073Z,4.28
2023-07-24T08:22:34.185Z,4.60
2023-07-24T08:25:00.898Z,4.38
2023-07-24T08:27:27.638Z,4.57
2023-07-24T08:29:54.467Z,4.13
2023-07-24T08:32:21.736Z,4.15
2023-07-24T08:34:48.487Z,4.50
2023-07-24T08:37:15.144Z,4.82
2023-07-24T08:39:42.700Z,5.13
2023-07-24T08:42:13.374Z,4.43
2023-07-24T08:44:40.288Z,4.93
2023-07-24T08:47:11.513Z,5.13
2023-07-24T08:49:41.237Z,5.07
2023-07-24T08:52:10.645Z,4.85
2023-07-24T08:54:40.210Z,4.53
2023-07-24T08:57:09.922Z,5.07
2023-07-24T08:59:36.678Z,5.03
2023-07-24T09:02:03.484Z,5.00
2023-07-24T09:04:30.451Z,6.03
2023-07-24T09:06:59.197Z,5.70
2023-07-24T09:09:31.542Z,5.90
2023-07-24T09:12:00.336Z,5.43
2023-07-24T09:14:33.328Z,5.68
2023-07-24T09:17:07.986Z,4.93
2023-07-24T09:19:36.444Z,4.70
2023-07-24T09:22:15.058Z,5.53
2023-07-24T09:24:58.441Z,5.60
2023-07-24T09:27:33.163Z,4.95
2023-07-24T09:30:01.141Z,5.15
2023-07-24T09:32:29.047Z,4.85
2023-07-24T09:34:56.063Z,5.75
2023-07-24T09:37:27.365Z,5.63
2023-07-24T09:39:54.389Z,5.03
2023-07-24T09:42:32.696Z,5.30
2023-07-24T09:45:00.173Z,5.05
2023-07-24T09:47:51.067Z,4.72
2023-07-24T09:50:14.356Z,5.00
2023-07-24T09:52:43.276Z,4.68
2023-07-24T09:55:16.152Z,4.90
2023-07-24T09:57:45.106Z,4.88
2023-07-24T10:00:13.810Z,5.55
2023-07-24T10:02:41.829Z,5.88
2023-07-24T10:05:08.674Z,5.65
2023-07-24T10:07:35.648Z,5.30
2023-07-24T10:10:03.173Z,5.60
2023-07-24T10:12:31.785Z,5.10
2023-07-24T10:14:59.030Z,5.88
2023-07-24T10:17:38.337Z,5.47
2023-07-24T10:20:06.944Z,4.80
2023-07-24T10:22:34.280Z,5.28
2023-07-24T10:25:01.170Z,5.63
2023-07-24T10:27:29.417Z,5.90
2023-07-24T10:30:14.810Z,5.80
2023-07-24T10:32:54.183Z,5.40
2023-07-24T10:35:24.048Z,5.95
2023-07-24T10:38:00.702Z,5.25
2023-07-24T10:40:27.434Z,5.60
2023-07-24T10:43:21.749Z,5.50
2023-07-24T10:48:18.406Z,5.95
2023-07-24T10:50:49.177Z,5.15
2023-07-24T10:53:21.287Z,5.72
2023-07-24T10:55:48.817Z,5.15
2023-07-24T10:58:15.739Z,5.38
2023-07-24T11:00:46.446Z,5.47
2023-07-24T11:03:14.599Z,5.80
2023-07-24T11:05:46.136Z,6.10
2023-07-24T11:08:16.867Z,5.88
2023-07-24T11:10:50.490Z,6.47
2023-07-24T11:13:18.949Z,5.60
2023-07-24T11:15:46.347Z,5.72
2023-07-24T11:18:14.241Z,6.05
2023-07-24T11:20:45.469Z,5.68
2023-07-24T11:23:12.471Z,5.75
2023-07-24T11:25:39.952Z,5.90
2023-07-24T11:28:12.005Z,6.05
2023-07-24T11:30:39.064Z,5.97
2023-07-24T11:33:19.321Z,5.55
2023-07-24T11:35:46.902Z,6.32
2023-07-24T11:38:14.870Z,6.03
2023-07-24T11:40:44.925Z,6.18
2023-07-24T11:43:22.436Z,6.53
2023-07-24T11:45:53.071Z,5.88
2023-07-24T11:48:20.631Z,6.22
2023-07-24T11:50:55.726Z,6.80
2023-07-24T11:53:27.217Z,6.93
2023-07-24T11:55:57.374Z,6.18
2023-07-24T11:58:27.222Z,7.20
2023-07-24T12:00:54.808Z,5.90
2023-07-24T12:03:29.657Z,7.05
2023-07-24T12:05:57.024Z,6.07
2023-07-24T12:08:37.326Z,5.85
2023-07-24T12:11:16.811Z,6.18
2023-07-24T12:13:43.479Z,6.10
2023-07-24T12:16:10.122Z,6.05
2023-07-24T12:18:36.833Z,6.25
2023-07-24T12:21:03.596Z,6.53
2023-07-24T12:23:30.335Z,6.45
2023-07-24T12:25:56.974Z,6.32
2023-07-24T12:28:23.606Z,6.35
2023-07-24T12:30:50.365Z,6.72
2023-07-24T12:33:17.829Z,6.35
2023-07-24T12:35:44.496Z,7.15
2023-07-24T12:38:11.267Z,6.80
2023-07-24T12:40:37.889Z,6.50
2023-07-24T12:43:04.568Z,7.13
2023-07-24T12:45:31.282Z,6.22
2023-07-24T12:47:58.060Z,6.57
2023-07-24T12:50:25.784Z,6.47
2023-07-24T12:52:52.575Z,6.60
2023-07-24T12:55:19.677Z,6.13
2023-07-24T12:57:46.257Z,7.32
2023-07-24T13:00:13.206Z,7.13
2023-07-24T13:02:40.125Z,6.57
2023-07-24T13:05:07.008Z,5.55
2023-07-24T13:07:33.935Z,6.30
2023-07-24T13:10:00.709Z,6.90
2023-07-24T13:12:27.428Z,6.47
2023-07-24T13:14:54.082Z,6.47
2023-07-24T13:17:20.765Z,6.40
2023-07-24T13:19:47.550Z,6.45
2023-07-24T13:22:14.240Z,7.15
2023-07-24T13:24:41.049Z,7.53
2023-07-24T13:27:07.822Z,7.40
2023-07-24T13:29:34.452Z,7.05
2023-07-24T13:32:01.136Z,7.07
2023-07-24T13:34:27.825Z,7.32
2023-07-24T13:36:54.515Z,7.57
2023-07-24T13:39:21.489Z,7.07
2023-07-24T13:41:48.171Z,7.63
2023-07-24T13:44:14.910Z,7.60
2023-07-24T13:46:41.631Z,7.70
2023-07-24T13:49:08.665Z,7.78
2023-07-24T13:51:35.491Z,8.15
2023-07-24T13:54:03.480Z,7.60
2023-07-24T13:56:34.706Z,7.70
2023-07-24T13:59:01.873Z,7.90
2023-07-24T14:01:28.622Z,8.07
2023-07-24T14:03:55.638Z,8.38
2023-07-24T14:06:22.359Z,8.13
2023-07-24T14:08:49.023Z,8.43
2023-07-24T14:11:15.686Z,8.68
2023-07-24T14:13:42.291Z,7.65
2023-07-24T14:16:08.984Z,7.32
2023-07-24T14:18:35.671Z,7.78
2023-07-24T14:21:02.372Z,7.70
2023-07-24T14:23:29.111Z,7.72
2023-07-24T14:25:55.999Z,8.23
2023-07-24T14:28:22.649Z,7.95
2023-07-24T14:30:49.456Z,8.57
2023-07-24T14:33:16.116Z,8.10
2023-07-24T14:35:43.235Z,7.97
2023-07-24T14:38:10.057Z,8.57
2023-07-24T14:40:36.755Z,7.95
2023-07-24T14:43:06.493Z,8.02
2023-07-24T14:45:34.532Z,6.95
2023-07-24T14:48:01.434Z,6.53
2023-07-24T14:50:28.391Z,7.13
2023-07-24T14:52:55.056Z,7.22
2023-07-24T14:55:21.824Z,6.93
2023-07-24T14:57:49.083Z,7.00
2023-07-24T15:00:17.512Z,7.30
2023-07-24T15:02:44.754Z,8.32
2023-07-24T15:05:11.572Z,7.25
2023-07-24T15:07:38.944Z,7.60
2023-07-24T15:10:06.373Z,7.65
2023-07-24T15:12:33.020Z,7.20
2023-07-24T15:14:59.737Z,7.57
2023-07-24T15:17:26.519Z,7.53
2023-07-24T15:19:53.144Z,7.68
2023-07-24T15:22:20.109Z,6.85
2023-07-24T15:24:48.026Z,7.40
2023-07-24T15:27:14.705Z,7.63
2023-07-24T15:29:41.547Z,7.93
2023-07-24T15:32:08.841Z,7.13
2023-07-24T15:34:38.238Z,8.15
2023-07-24T15:37:06.439Z,7.68
2023-07-24T15:39:33.103Z,7.70
2023-07-24T15:41:59.742Z,7.70
2023-07-24T15:44:26.377Z,7.40
2023-07-24T15:46:53.268Z,6.72
2023-07-24T15:49:20.124Z,7.28
2023-07-24T15:51:46.963Z,7.05
2023-07-24T15:54:13.678Z,8.13
2023-07-24T15:56:40.543Z,7.50
2023-07-24T15:59:07.663Z,7.47
2023-07-24T16:01:34.878Z,6.78
2023-07-24T16:04:02.081Z,7.18
2023-07-24T16:06:29.317Z,7.70
2023-07-24T16:08:55.971Z,6.80
2023-07-24T16:11:22.790Z,7.30
2023-07-24T16:13:49.449Z,7.45
2023-07-24T16:16:16.177Z,7.25
2023-07-24T16:18:43.041Z,7.45
2023-07-24T16:21:09.739Z,6.82
2023-07-24T16:23:36.773Z,7.55
2023-07-24T16:26:03.716Z,7.45
2023-07-24T16:28:30.484Z,7.90
2023-07-24T16:30:58.791Z,6.75
2023-07-24T16:33:26.005Z,6.82
2023-07-24T16:35:53.156Z,7.05
2023-07-24T16:38:20.141Z,7.25
2023-07-24T16:40:46.855Z,8.30
2023-07-24T16:43:13.541Z,7.45
2023-07-24T16:45:40.209Z,7.20
2023-07-24T16:48:07.523Z,6.70
2023-07-24T16:50:36.619Z,6.90
2023-07-24T16:53:04.741Z,7.60
2023-07-24T16:55:31.535Z,8.25
2023-07-24T16:57:58.695Z,7.75
2023-07-24T17:00:25.341Z,7.95
2023-07-24T17:02:52.166Z,8.75
2023-07-24T17:05:19.226Z,7.40
2023-07-24T17:07:46.172Z,8.93
2023-07-24T17:10:12.898Z,8.38
2023-07-24T17:12:39.607Z,7.90
2023-07-24T17:15:07.066Z,8.13
2023-07-24T17:17:33.986Z,8.13
2023-07-24T17:20:01.016Z,8.65
2023-07-24T17:22:27.879Z,8.15
2023-07-24T17:24:54.567Z,8.57
2023-07-24T17:27:21.772Z,9.10
2023-07-24T17:29:49.194Z,8.85
2023-07-24T17:32:19.722Z,8.88
2023-07-24T17:34:46.412Z,9.63
2023-07-24T17:37:21.209Z,8.80
2023-07-24T17:39:55.489Z,8.98
2023-07-24T17:42:22.247Z,9.30
2023-07-24T17:44:49.020Z,10.10
2023-07-24T17:47:15.755Z,10.10
2023-07-24T17:49:47.636Z,9.75
2023-07-24T17:52:25.183Z,8.73
2023-07-24T17:54:51.770Z,9.80
2023-07-24T17:57:18.370Z,10.20
2023-07-24T17:59:45.363Z,10.48
2023-07-24T18:02:12.262Z,9.98
2023-07-24T18:04:39.404Z,10.63
2023-07-24T18:07:06.344Z,9.68
2023-07-24T18:09:32.997Z,9.50
2023-07-24T18:11:59.896Z,10.70
2023-07-24T18:14:26.667Z,9.50
2023-07-24T18:16:53.486Z,10.57
2023-07-24T18:19:20.110Z,10.60
2023-07-24T18:21:46.760Z,10.88
2023-07-24T18:24:13.839Z,10.65
2023-07-24T18:26:40.637Z,10.77
2023-07-24T18:29:07.336Z,10.93
2023-07-24T18:31:34.268Z,10.18
2023-07-24T18:34:01.212Z,10.38
2023-07-24T18:36:27.891Z,10.43
2023-07-24T18:38:54.760Z,10.68
2023-07-24T18:41:21.503Z,11.00
2023-07-24T18:43:48.207Z,11.07
2023-07-24T18:46:14.950Z,10.32
2023-07-24T18:48:41.681Z,11.75
2023-07-24T18:51:09.666Z,11.23
2023-07-24T18:53:36.300Z,11.05
2023-07-24T18:56:03.071Z,10.20
2023-07-24T18:58:29.830Z,9.77
2023-07-24T19:00:56.665Z,10.02
2023-07-24T19:03:23.556Z,11.23
2023-07-24T19:05:50.244Z,10.68
2023-07-24T19:08:16.928Z,10.85
2023-07-24T19:10:43.730Z,10.93
2023-07-24T19:13:11.159Z,10.65
2023-07-24T19:15:37.833Z,10.70
2023-07-24T19:18:04.562Z,11.20
2023-07-24T19:20:33.611Z,10.43
2023-07-24T19:23:00.997Z,10.45
2023-07-24T19:25:29.197Z,9.45
2023-07-24T19:27:55.929Z,10.13
2023-07-24T19:30:22.850Z,10.48
2023-07-24T19:32:49.629Z,11.13
2023-07-24T19:35:16.732Z,10.50
2023-07-24T19:37:43.445Z,10.70
2023-07-24T19:40:10.438Z,10.95
2023-07-24T19:42:37.258Z,11.10
2023-07-24T19:45:04.463Z,10.35
2023-07-24T19:47:31.289Z,9.98
2023-07-24T19:49:58.045Z,10.27
2023-07-24T19:52:24.749Z,10.55
2023-07-24T19:54:52.560Z,10.70
2023-07-24T19:57:19.825Z,10.95
2023-07-24T19:59:46.650Z,10.55
2023-07-24T20:02:14.570Z,10.63
2023-07-24T20:04:41.356Z,10.65
2023-07-24T20:07:08.237Z,11.18
2023-07-24T20:09:35.382Z,11.38
2023-07-24T20:12:02.520Z,10.98
2023-07-24T20:14:29.485Z,11.32
2023-07-24T20:16:56.146Z,10.77
2023-07-24T20:19:22.842Z,10.95
2023-07-24T20:21:49.835Z,10.57
2023-07-24T20:24:16.551Z,11.13
2023-07-24T20:26:43.204Z,11.57
2023-07-24T20:29:09.792Z,11.45
2023-07-24T20:31:36.657Z,11.38
2023-07-24T20:34:03.476Z,11.35
2023-07-24T20:36:30.149Z,10.82
2023-07-24T20:38:56.728Z,10.52
2023-07-24T20:41:23.388Z,11.00
2023-07-24T20:43:50.082Z,10.90
2023-07-24T20:46:17.437Z,11.32
2023-07-24T20:48:44.989Z,11.40
2023-07-24T20:51:19.219Z,10.32
2023-07-24T20:53:45.897Z,12.02
2023-07-24T20:56:13.081Z,11.57
2023-07-24T20:58:42.381Z,11.85
2023-07-24T21:01:10.357Z,12.23
2023-07-24T21:03:37.167Z,11.38
2023-07-24T21:06:04.125Z,10.52
2023-07-24T21:08:31.372Z,11.23
2023-07-24T21:10:58.085Z,11.43
2023-07-24T21:13:24.769Z,11.73
2023-07-24T21:15:52.163Z,10.70
2023-07-24T21:18:19.305Z,11.48
2023-07-24T21:20:47.134Z,11.02
2023-07-24T21:23:14.818Z,10.98
2023-07-24T21:25:53.216Z,10.57
2023-07-24T21:28:20.353Z,10.93
2023-07-24T21:30:48.652Z,11.23
2023-07-24T21:33:16.467Z,10.02
2023-07-24T21:35:43.257Z,10.73
2023-07-24T21:38:11.480Z,11.93
2023-07-24T21:40:39.904Z,10.88
2023-07-24T21:43:06.582Z,11.00
2023-07-24T21:45:33.250Z,11.00
2023-07-24T21:48:02.061Z,12.43
2023-07-24T21:50:28.845Z,11.55
2023-07-24T21:52:55.475Z,10.23
2023-07-24T21:55:22.197Z,11.57
2023-07-24T21:57:48.939Z,10.95
2023-07-24T22:00:15.892Z,10.00
2023-07-24T22:02:42.639Z,11.93
2023-07-24T22:05:09.525Z,11.32
2023-07-24T22:07:36.216Z,11.07
2023-07-24T22:10:03.014Z,11.80
2023-07-24T22:12:30.117Z,11.52
2023-07-24T22:14:56.753Z,12.15
2023-07-24T22:17:27.316Z,11.90
2023-07-24T22:19:54.094Z,12.13
2023-07-24T22:22:20.810Z,11.57
2023-07-24T22:24:47.531Z,11.55
2023-07-24T22:27:14.234Z,11.07
2023-07-24T22:29:41.144Z,12.18
2023-07-24T22:32:08.463Z,11.45
2023-07-24T22:34:35.737Z,12.23
2023-07-24T22:37:02.600Z,11.48
2023-07-24T22:39:29.260Z,10.98
2023-07-24T22:41:56.065Z,11.32
2023-07-24T22:44:22.962Z,10.20
2023-07-24T22:46:49.911Z,11.38
2023-07-24T22:49:16.579Z,11.27
2023-07-24T22:51:43.286Z,10.85
2023-07-24T22:54:09.985Z,11.27
2023-07-24T22:56:37.551Z,11.63
2023-07-24T22:59:04.480Z,10.93
2023-07-24T23:01:32.877Z,10.52
2023-07-24T23:03:59.804Z,9.82
2023-07-24T23:06:26.515Z,9.98
2023-07-24T23:08:55.338Z,11.00
2023-07-24T23:11:21.982Z,11.07
2023-07-24T23:13:48.589Z,10.20
2023-07-24T23:16:15.279Z,10.15
2023-07-24T23:18:42.555Z,10.50
2023-07-24T23:21:09.523Z,10.35
2023-07-24T23:23:36.443Z,10.35
2023-07-24T23:26:04.036Z,9.75
2023-07-24T23:28:30.815Z,10.70
2023-07-24T23:30:57.707Z,10.80
2023-07-24T23:33:24.447Z,9.88
2023-07-24T23:35:52.386Z,11.18
2023-07-24T23:38:19.132Z,10.73
2023-07-24T23:40:45.891Z,11.23
2023-07-24T23:43:12.976Z,11.10
2023-07-24T23:45:39.897Z,11.40
2023-07-24T23:48:06.831Z,11.10
2023-07-24T23:50:38.361Z,10.75
2023-07-24T23:53:07.621Z,10.23
2023-07-24T23:55:34.757Z,11.23
2023-07-24T23:58:01.462Z,10.85
